sensor_id;sensor_type;location;lat;lon;timestamp;pressure;altitude;pressure_sealevel;temperature;humidity
17950;BME280;9100;48.700;9.316;2023-01-29T00:00:34;98803.5;;;1.49;100
17950;BME280;9100;48.700;9.316;2023-01-29T00:01:01;98808.5;;;1.49;100
17950;BME280;9100;48.700;9.316;2023-01-29T00:01:59;98810.1;;;1.5;100
17950;BME280;9100;48.700;9.316;2023-01-29T00:02:58;98811.8;;;1.51;100
17950;BME280;9100;48.700;9.316;2023-01-29T00:03:58;98808.6;;;1.48;100
17950;BME280;9100;48.700;9.316;2023-01-29T00:04:58;98806.9;;;1.48;100
17950;BME280;9100;48.700;9.316;2023-01-29T00:05:34;98813.7;;;1.46;100
17950;BME280;9100;48.700;9.316;2023-01-29T00:05:58;98814.59999999999;;;1.46;100
17950;BME280;9100;48.700;9.316;2023-01-29T00:06:59;98804.5;;;1.46;100
17950;BME280;9100;48.700;9.316;2023-01-29T00:07:58;98804.5;;;1.46;100
17950;BME280;9100;48.700;9.316;2023-01-29T00:09:00;98814.5;;;1.48;100
17950;BME280;9100;48.700;9.316;2023-01-29T00:09:57;98816.2;;;1.48;100
17950;BME280;9100;48.700;9.316;2023-01-29T00:10:34;98810.29999999999;;;1.47;100
17950;BME280;9100;48.700;9.316;2023-01-29T00:10:59;98808.5;;;1.49;100
17950;BME280;9100;48.700;9.316;2023-01-29T00:11:58;98804.4;;;1.48;100
17950;BME280;9100;48.700;9.316;2023-01-29T00:13:00;98803.5;;;1.49;100
17950;BME280;9100;48.700;9.316;2023-01-29T00:13:58;98797.7;;;1.47;100
17950;BME280;9100;48.700;9.316;2023-01-29T00:14:58;98802.70000000001;;;1.49;100
17950;BME280;9100;48.700;9.316;2023-01-29T00:15:34;98798.40000000001;;;1.49;100
17950;BME280;9100;48.700;9.316;2023-01-29T00:15:58;98793.4;;;1.49;100
17950;BME280;9100;48.700;9.316;2023-01-29T00:16:58;98793.2;;;1.52;100
17950;BME280;9100;48.700;9.316;2023-01-29T00:17:58;98795.6;;;1.54;100
17950;BME280;9100;48.700;9.316;2023-01-29T00:18:59;98805.6;;;1.55;100
17950;BME280;9100;48.700;9.316;2023-01-29T00:19:58;98803.9;;;1.56;100
17950;BME280;9100;48.700;9.316;2023-01-29T00:20:34;98803.9;;;1.56;100
17950;BME280;9100;48.700;9.316;2023-01-29T00:20:58;98809.79999999999;;;1.56;100
17950;BME280;9100;48.700;9.316;2023-01-29T00:21:58;98804.7;;;1.56;100
17950;BME280;9100;48.700;9.316;2023-01-29T00:22:58;98810.5;;;1.58;100
17950;BME280;9100;48.700;9.316;2023-01-29T00:23:58;98816.3;;;1.59;100
17950;BME280;9100;48.700;9.316;2023-01-29T00:24:58;98810.40000000001;;;1.6;100
17950;BME280;9100;48.700;9.316;2023-01-29T00:25:34;98817;;;1.61;100
17950;BME280;9100;48.700;9.316;2023-01-29T00:25:58;98812.8;;;1.61;100
17950;BME280;9100;48.700;9.316;2023-01-29T00:26:58;98815.20000000001;;;1.63;100
17950;BME280;9100;48.700;9.316;2023-01-29T00:27:58;98808.5;;;1.63;100
17950;BME280;9100;48.700;9.316;2023-01-29T00:28:58;98810.2;;;1.63;100
17950;BME280;9100;48.700;9.316;2023-01-29T00:29:58;98814.20000000001;;;1.65;100
17950;BME280;9100;48.700;9.316;2023-01-29T00:30:34;98815.9;;;1.65;100
17950;BME280;9100;48.700;9.316;2023-01-29T00:30:58;98816.8;;;1.65;100
17950;BME280;9100;48.700;9.316;2023-01-29T00:31:58;98813.3;;;1.66;100
17950;BME280;9100;48.700;9.316;2023-01-29T00:32:58;98809.90000000001;;;1.67;100
17950;BME280;9100;48.700;9.316;2023-01-29T00:33:58;98803.09999999999;;;1.68;100
17950;BME280;9100;48.700;9.316;2023-01-29T00:34:58;98804;;;1.68;100
17950;BME280;9100;48.700;9.316;2023-01-29T00:35:35;98809;;;1.68;100
17950;BME280;9100;48.700;9.316;2023-01-29T00:36:00;98804.9;;;1.67;100
17950;BME280;9100;48.700;9.316;2023-01-29T00:36:58;98798.90000000001;;;1.68;100
17950;BME280;9100;48.700;9.316;2023-01-29T00:37:58;98800.5;;;1.69;100
17950;BME280;9100;48.700;9.316;2023-01-29T00:38:58;98798.90000000001;;;1.68;100
17950;BME280;9100;48.700;9.316;2023-01-29T00:39:58;98804;;;1.68;100
17950;BME280;9100;48.700;9.316;2023-01-29T00:40:36;98798.8;;;1.7;100
17950;BME280;9100;48.700;9.316;2023-01-29T00:41:03;98794.6;;;1.7;100
17950;BME280;9100;48.700;9.316;2023-01-29T00:41:59;98797.7;;;1.74;100
17950;BME280;9100;48.700;9.316;2023-01-29T00:43:00;98803.59999999999;;;1.74;100
17950;BME280;9100;48.700;9.316;2023-01-29T00:43:58;98805.2;;;1.75;100
17950;BME280;9100;48.700;9.316;2023-01-29T00:44:58;98802.59999999999;;;1.77;100
17950;BME280;9100;48.700;9.316;2023-01-29T00:45:34;98808.4;;;1.77;100
17950;BME280;9100;48.700;9.316;2023-01-29T00:45:59;98804.2;;;1.78;100
17950;BME280;9100;48.700;9.316;2023-01-29T00:46:58;98805.1;;;1.77;100
17950;BME280;9100;48.700;9.316;2023-01-29T00:47:58;98803.2;;;1.8;100
17950;BME280;9100;48.700;9.316;2023-01-29T00:48:58;98803.3;;;1.79;100
17950;BME280;9100;48.700;9.316;2023-01-29T00:49:58;98798.2;;;1.79;100
17950;BME280;9100;48.700;9.316;2023-01-29T00:50:34;98801.59999999999;;;1.79;100
17950;BME280;9100;48.700;9.316;2023-01-29T00:51:00;98798.40000000001;;;1.77;100
17950;BME280;9100;48.700;9.316;2023-01-29T00:51:59;98798.2;;;1.8;100
17950;BME280;9100;48.700;9.316;2023-01-29T00:52:58;98803.2;;;1.8;100
17950;BME280;9100;48.700;9.316;2023-01-29T00:53:59;98804.8;;;1.81;100
17950;BME280;9100;48.700;9.316;2023-01-29T00:54:59;98798.2;;;1.8;100
17950;BME280;9100;48.700;9.316;2023-01-29T00:55:34;98804;;;1.81;100
17950;BME280;9100;48.700;9.316;2023-01-29T00:55:58;98802.4;;;1.8;100
17950;BME280;9100;48.700;9.316;2023-01-29T00:56:58;98797.29999999999;;;1.8;100
17950;BME280;9100;48.700;9.316;2023-01-29T00:57:59;98800.7;;;1.8;100
17950;BME280;9100;48.700;9.316;2023-01-29T00:58:58;98808.3;;;1.8;100
17950;BME280;9100;48.700;9.316;2023-01-29T00:59:58;98804.1;;;1.79;100
17950;BME280;9100;48.700;9.316;2023-01-29T01:00:34;98798.40000000001;;;1.77;100
17950;BME280;9100;48.700;9.316;2023-01-29T01:00:58;98803.4;;;1.77;100
17950;BME280;9100;48.700;9.316;2023-01-29T01:01:59;98809.3;;;1.76;100
17950;BME280;9100;48.700;9.316;2023-01-29T01:02:58;98801.8;;;1.76;100
17950;BME280;9100;48.700;9.316;2023-01-29T01:03:58;98802.59999999999;;;1.77;100
17950;BME280;9100;48.700;9.316;2023-01-29T01:04:58;98805.8;;;1.79;100
17950;BME280;9100;48.700;9.316;2023-01-29T01:05:35;98804.2;;;1.78;100
17950;BME280;9100;48.700;9.316;2023-01-29T01:06:01;98797.5;;;1.77;100
17950;BME280;9100;48.700;9.316;2023-01-29T01:06:58;98787.90000000001;;;1.71;100
17950;BME280;9100;48.700;9.316;2023-01-29T01:07:58;98796.5;;;1.79;100
17950;BME280;9100;48.700;9.316;2023-01-29T01:08:58;98794.1;;;1.78;100
17950;BME280;9100;48.700;9.316;2023-01-29T01:09:58;98789.09999999999;;;1.78;100
17950;BME280;9100;48.700;9.316;2023-01-29T01:10:34;98795;;;1.77;100
17950;BME280;9100;48.700;9.316;2023-01-29T01:10:59;98798.40000000001;;;1.77;100
17950;BME280;9100;48.700;9.316;2023-01-29T01:11:58;98790.09999999999;;;1.75;100
17950;BME280;9100;48.700;9.316;2023-01-29T01:12:59;98796;;;1.74;100
17950;BME280;9100;48.700;9.316;2023-01-29T01:13:58;98797.7;;;1.74;100
17950;BME280;9100;48.700;9.316;2023-01-29T01:14:58;98795.3;;;1.72;100
17950;BME280;9100;48.700;9.316;2023-01-29T01:15:34;98793.7;;;1.71;100
17950;BME280;9100;48.700;9.316;2023-01-29T01:15:58;98800.3;;;1.72;100
17950;BME280;9100;48.700;9.316;2023-01-29T01:16:58;98801.2;;;1.73;100
17950;BME280;9100;48.700;9.316;2023-01-29T01:17:58;98800.5;;;1.71;100
17950;BME280;9100;48.700;9.316;2023-01-29T01:18:58;98798.7;;;1.71;100
17950;BME280;9100;48.700;9.316;2023-01-29T01:19:59;98803.09999999999;;;1.69;100
17950;BME280;9100;48.700;9.316;2023-01-29T01:20:34;98801.4;;;1.7;100
17950;BME280;9100;48.700;9.316;2023-01-29T01:20:58;98798;;;1.69;100
17950;BME280;9100;48.700;9.316;2023-01-29T01:21:58;98803.09999999999;;;1.69;100
17950;BME280;9100;48.700;9.316;2023-01-29T01:22:58;98801.4;;;1.7;100
17950;BME280;9100;48.700;9.316;2023-01-29T01:23:58;98798.8;;;1.7;100
17950;BME280;9100;48.700;9.316;2023-01-29T01:24:59;98795.5;;;1.69;100
17950;BME280;9100;48.700;9.316;2023-01-29T01:25:34;98798;;;1.69;100
17950;BME280;9100;48.700;9.316;2023-01-29T01:25:58;98794.7;;;1.69;100
17950;BME280;9100;48.700;9.316;2023-01-29T01:26:58;98787;;;1.7;100
17950;BME280;9100;48.700;9.316;2023-01-29T01:27:58;98800.5;;;1.69;100
17950;BME280;9100;48.700;9.316;2023-01-29T01:28:59;98795.5;;;1.69;100
17950;BME280;9100;48.700;9.316;2023-01-29T01:29:59;98794.7;;;1.69;100
17950;BME280;9100;48.700;9.316;2023-01-29T01:30:34;98798.90000000001;;;1.68;100
17950;BME280;9100;48.700;9.316;2023-01-29T01:31:06;98798;;;1.69;100
17950;BME280;9100;48.700;9.316;2023-01-29T01:31:59;98792.9;;;1.71;100
17950;BME280;9100;48.700;9.316;2023-01-29T01:32:59;98787;;;1.7;100
17950;BME280;9100;48.700;9.316;2023-01-29T01:33:59;98791.3;;;1.7;100
17950;BME280;9100;48.700;9.316;2023-01-29T01:34:59;98793;;;1.69;100
17950;BME280;9100;48.700;9.316;2023-01-29T01:35:36;98793;;;1.69;100
17950;BME280;9100;48.700;9.316;2023-01-29T01:36:00;98785.40000000001;;;1.69;100
17950;BME280;9100;48.700;9.316;2023-01-29T01:36:59;98791.3;;;1.7;100
17950;BME280;9100;48.700;9.316;2023-01-29T01:37:59;98793.7;;;1.71;100
17950;BME280;9100;48.700;9.316;2023-01-29T01:38:58;98790.3;;;1.72;100
17950;BME280;9100;48.700;9.316;2023-01-29T01:39:58;98791.09999999999;;;1.73;100
17950;BME280;9100;48.700;9.316;2023-01-29T01:40:35;98793.7;;;1.71;100
17950;BME280;9100;48.700;9.316;2023-01-29T01:40:58;98790.3;;;1.72;100
17950;BME280;9100;48.700;9.316;2023-01-29T01:41:58;98785.2;;;1.72;100
17950;BME280;9100;48.700;9.316;2023-01-29T01:42:59;98786.8;;;1.73;100
17950;BME280;9100;48.700;9.316;2023-01-29T01:43:59;98795.2;;;1.74;100
17950;BME280;9100;48.700;9.316;2023-01-29T01:44:59;98794.4;;;1.73;100
17950;BME280;9100;48.700;9.316;2023-01-29T01:45:34;98792.7;;;1.74;100
17950;BME280;9100;48.700;9.316;2023-01-29T01:45:58;98790.3;;;1.72;100
17950;BME280;9100;48.700;9.316;2023-01-29T01:46:58;98795.2;;;1.74;100
17950;BME280;9100;48.700;9.316;2023-01-29T01:47:58;98785.90000000001;;;1.74;100
17950;BME280;9100;48.700;9.316;2023-01-29T01:49:01;98796.90000000001;;;1.73;100
17950;BME280;9100;48.700;9.316;2023-01-29T01:49:59;98803.8;;;1.71;100
17950;BME280;9100;48.700;9.316;2023-01-29T01:50:36;98793;;;1.69;100
17950;BME280;9100;48.700;9.316;2023-01-29T01:50:58;98793.7;;;1.71;100
17950;BME280;9100;48.700;9.316;2023-01-29T01:51:58;98788.8;;;1.68;100
17950;BME280;9100;48.700;9.316;2023-01-29T01:52:59;98791.5;;;1.67;100
17950;BME280;9100;48.700;9.316;2023-01-29T01:53:59;98788.9;;;1.67;100
17950;BME280;9100;48.700;9.316;2023-01-29T01:54:58;98785.6;;;1.66;100
17950;BME280;9100;48.700;9.316;2023-01-29T01:55:34;98777.20000000001;;;1.66;100
17950;BME280;9100;48.700;9.316;2023-01-29T01:55:59;98781.4;;;1.67;100
17950;BME280;9100;48.700;9.316;2023-01-29T01:56:59;98784;;;1.65;100
17950;BME280;9100;48.700;9.316;2023-01-29T01:58:01;98781.4;;;1.67;100
17950;BME280;9100;48.700;9.316;2023-01-29T01:58:58;98784;;;1.65;100
17950;BME280;9100;48.700;9.316;2023-01-29T02:00:00;98781.6;;;1.64;100
17950;BME280;9100;48.700;9.316;2023-01-29T02:00:35;98784.2;;;1.62;100
17950;BME280;9100;48.700;9.316;2023-01-29T02:00:58;98779.1;;;1.62;100
17950;BME280;9100;48.700;9.316;2023-01-29T02:01:58;98786.8;;;1.61;100
17950;BME280;9100;48.700;9.316;2023-01-29T02:02:58;98787.7;;;1.6;100
17950;BME280;9100;48.700;9.316;2023-01-29T02:03:59;98786.8;;;1.61;100
17950;BME280;9100;48.700;9.316;2023-01-29T02:04:58;98795.2;;;1.61;100
17950;BME280;9100;48.700;9.316;2023-01-29T02:05:34;98780.9;;;1.6;100
17950;BME280;9100;48.700;9.316;2023-01-29T02:05:58;98785.2;;;1.6;100
17950;BME280;9100;48.700;9.316;2023-01-29T02:06:58;98796.1;;;1.6;100
17950;BME280;9100;48.700;9.316;2023-01-29T02:07:58;98783.5;;;1.6;100
17950;BME280;9100;48.700;9.316;2023-01-29T02:08:59;98789.20000000001;;;1.62;100
17950;BME280;9100;48.700;9.316;2023-01-29T02:09:59;98786.7;;;1.62;100
17950;BME280;9100;48.700;9.316;2023-01-29T02:10:35;98790;;;1.63;100
17950;BME280;9100;48.700;9.316;2023-01-29T02:10:58;98783.4;;;1.62;100
17950;BME280;9100;48.700;9.316;2023-01-29T02:11:59;98790;;;1.63;100
17950;BME280;9100;48.700;9.316;2023-01-29T02:12:58;98791.7;;;1.64;100
17950;BME280;9100;48.700;9.316;2023-01-29T02:13:59;98785.79999999999;;;1.63;100
17950;BME280;9100;48.700;9.316;2023-01-29T02:14:59;98785;;;1.63;100
17950;BME280;9100;48.700;9.316;2023-01-29T02:15:35;98785.79999999999;;;1.63;100
17950;BME280;9100;48.700;9.316;2023-01-29T02:15:58;98790;;;1.63;100
17950;BME280;9100;48.700;9.316;2023-01-29T02:16:59;98789.20000000001;;;1.62;100
17950;BME280;9100;48.700;9.316;2023-01-29T02:17:59;98794.3;;;1.62;100
17950;BME280;9100;48.700;9.316;2023-01-29T02:18:59;98799.40000000001;;;1.61;100
17950;BME280;9100;48.700;9.316;2023-01-29T02:20:01;98803.8;;;1.57;100
17950;BME280;9100;48.700;9.316;2023-01-29T02:20:34;98798.1;;;1.55;100
17950;BME280;9100;48.700;9.316;2023-01-29T02:21:03;98811.6;;;1.54;100
17950;BME280;9100;48.700;9.316;2023-01-29T02:22:11;98803.7;;;1.59;100
17950;BME280;9100;48.700;9.316;2023-01-29T02:23:04;98795;;;1.64;100
17950;BME280;9100;48.700;9.316;2023-01-29T02:24:04;98796.90000000001;;;1.73;100
17950;BME280;9100;48.700;9.316;2023-01-29T02:25:00;98798.2;;;1.8;100
17950;BME280;9100;48.700;9.316;2023-01-29T02:25:56;98804.5;;;1.86;100
17950;BME280;9100;48.700;9.316;2023-01-29T02:26:02;98803.5;;;1.88;100
17950;BME280;9100;48.700;9.316;2023-01-29T02:27:02;98803.3;;;1.91;100
17950;BME280;9100;48.700;9.316;2023-01-29T02:28:06;98802.4;;;1.92;100
17950;BME280;9100;48.700;9.316;2023-01-29T02:28:58;98800;;;1.91;100
17950;BME280;9100;48.700;9.316;2023-01-29T02:30:00;98800.9;;;1.9;100
17950;BME280;9100;48.700;9.316;2023-01-29T02:30:35;98801.8;;;1.89;100
17950;BME280;9100;48.700;9.316;2023-01-29T02:31:00;98798.5;;;1.88;100
17950;BME280;9100;48.700;9.316;2023-01-29T02:32:01;98799.40000000001;;;1.87;100
17950;BME280;9100;48.700;9.316;2023-01-29T02:32:58;98797.90000000001;;;1.85;100
17950;BME280;9100;48.700;9.316;2023-01-29T02:34:00;98803.4;;;1.77;100
17950;BME280;9100;48.700;9.316;2023-01-29T02:35:03;98804.3;;;1.76;100
17950;BME280;9100;48.700;9.316;2023-01-29T02:35:36;98804.5;;;1.73;100
17950;BME280;9100;48.700;9.316;2023-01-29T02:36:00;98801.2;;;1.73;100
17950;BME280;9100;48.700;9.316;2023-01-29T02:36:58;98798.7;;;1.71;100
17950;BME280;9100;48.700;9.316;2023-01-29T02:38:00;98803.9;;;1.7;100
17950;BME280;9100;48.700;9.316;2023-01-29T02:38:59;98801.5;;;1.67;100
17950;BME280;9100;48.700;9.316;2023-01-29T02:40:00;98806.8;;;1.64;100
17950;BME280;9100;48.700;9.316;2023-01-29T02:40:35;98799.3;;;1.62;100
17950;BME280;9100;48.700;9.316;2023-01-29T02:41:00;98807.8;;;1.61;100
17950;BME280;9100;48.700;9.316;2023-01-29T02:41:59;98805.4;;;1.6;100
17950;BME280;9100;48.700;9.316;2023-01-29T02:43:01;98813;;;1.58;100
17950;BME280;9100;48.700;9.316;2023-01-29T02:43:59;98807.3;;;1.56;100
17950;BME280;9100;48.700;9.316;2023-01-29T02:44:59;98803.09999999999;;;1.55;100
17950;BME280;9100;48.700;9.316;2023-01-29T02:45:37;98804.1;;;1.53;100
17950;BME280;9100;48.700;9.316;2023-01-29T02:45:59;98804.2;;;1.51;100
17950;BME280;9100;48.700;9.316;2023-01-29T02:46:59;98804.9;;;1.53;100
17950;BME280;9100;48.700;9.316;2023-01-29T02:47:59;98807.5;;;1.52;100
17950;BME280;9100;48.700;9.316;2023-01-29T02:49:00;98806.7;;;1.51;100
17950;BME280;9100;48.700;9.316;2023-01-29T02:49:58;98806.9;;;1.48;100
17950;BME280;9100;48.700;9.316;2023-01-29T02:50:36;98807.8;;;1.47;100
17950;BME280;9100;48.700;9.316;2023-01-29T02:50:59;98804.5;;;1.46;100
17950;BME280;9100;48.700;9.316;2023-01-29T02:51:59;98805.3;;;1.47;100
17950;BME280;9100;48.700;9.316;2023-01-29T02:52:58;98802;;;1.46;100
17950;BME280;9100;48.700;9.316;2023-01-29T02:53:59;98806.2;;;1.46;100
17950;BME280;9100;48.700;9.316;2023-01-29T02:54:59;98803.9;;;1.41;100
17950;BME280;9100;48.700;9.316;2023-01-29T02:55:34;98800.59999999999;;;1.41;100
17950;BME280;9100;48.700;9.316;2023-01-29T02:55:59;98800.59999999999;;;1.41;100
17950;BME280;9100;48.700;9.316;2023-01-29T02:56:58;98804.1;;;1.38;100
17950;BME280;9100;48.700;9.316;2023-01-29T02:57:59;98802.59999999999;;;1.36;100
17950;BME280;9100;48.700;9.316;2023-01-29T02:58:59;98807.6;;;1.36;100
17950;BME280;9100;48.700;9.316;2023-01-29T02:59:59;98809.5;;;1.34;100
17950;BME280;9100;48.700;9.316;2023-01-29T03:00:35;98806.2;;;1.32;100
17950;BME280;9100;48.700;9.316;2023-01-29T03:00:59;98807.1;;;1.31;100
17950;BME280;9100;48.700;9.316;2023-01-29T03:01:59;98810.5;;;1.3;100
17950;BME280;9100;48.700;9.316;2023-01-29T03:02:59;98800.5;;;1.3;100
17950;BME280;9100;48.700;9.316;2023-01-29T03:04:00;98804.8;;;1.28;100
17950;BME280;9100;48.700;9.316;2023-01-29T03:04:59;98808.2;;;1.27;100
17950;BME280;9100;48.700;9.316;2023-01-29T03:05:36;98805;;;1.25;100
17950;BME280;9100;48.700;9.316;2023-01-29T03:06:00;98803.3;;;1.25;100
17950;BME280;9100;48.700;9.316;2023-01-29T03:06:59;98800.7;;;1.25;100
17950;BME280;9100;48.700;9.316;2023-01-29T03:08:00;98800.7;;;1.25;100
17950;BME280;9100;48.700;9.316;2023-01-29T03:08:59;98794.9;;;1.25;100
17950;BME280;9100;48.700;9.316;2023-01-29T03:09:59;98795.9;;;1.22;100
17950;BME280;9100;48.700;9.316;2023-01-29T03:10:35;98798.5;;;1.21;100
17950;BME280;9100;48.700;9.316;2023-01-29T03:11:00;98797.6;;;1.22;100
17950;BME280;9100;48.700;9.316;2023-01-29T03:12:01;98796;;;1.21;100
17950;BME280;9100;48.700;9.316;2023-01-29T03:12:59;98796.8;;;1.21;100
17950;BME280;9100;48.700;9.316;2023-01-29T03:13:58;98793.5;;;1.21;100
17950;BME280;9100;48.700;9.316;2023-01-29T03:14:58;98796.1;;;1.19;100
17950;BME280;9100;48.700;9.316;2023-01-29T03:15:37;98795.4;;;1.16;100
17950;BME280;9100;48.700;9.316;2023-01-29T03:15:59;98797.1;;;1.17;100
17950;BME280;9100;48.700;9.316;2023-01-29T03:16:58;98787;;;1.17;100
17950;BME280;9100;48.700;9.316;2023-01-29T03:17:58;98792.8;;;1.17;100
17950;BME280;9100;48.700;9.316;2023-01-29T03:19:00;98789.5;;;1.17;100
17950;BME280;9100;48.700;9.316;2023-01-29T03:19:58;98787;;;1.17;100
17950;BME280;9100;48.700;9.316;2023-01-29T03:20:35;98792;;;1.17;100
17950;BME280;9100;48.700;9.316;2023-01-29T03:20:59;98789.5;;;1.17;100
17950;BME280;9100;48.700;9.316;2023-01-29T03:21:58;98790.3;;;1.17;100
17950;BME280;9100;48.700;9.316;2023-01-29T03:23:00;98791.09999999999;;;1.18;100
17950;BME280;9100;48.700;9.316;2023-01-29T03:23:58;98794.5;;;1.18;100
17950;BME280;9100;48.700;9.316;2023-01-29T03:24:58;98785.2;;;1.19;100
17950;BME280;9100;48.700;9.316;2023-01-29T03:25:34;98789.4;;;1.18;100
17950;BME280;9100;48.700;9.316;2023-01-29T03:25:58;98786.8;;;1.2;100
17950;BME280;9100;48.700;9.316;2023-01-29T03:27:00;98790.9;;;1.21;100
17950;BME280;9100;48.700;9.316;2023-01-29T03:27:58;98789.20000000001;;;1.21;100
17950;BME280;9100;48.700;9.316;2023-01-29T03:28:59;98790.9;;;1.21;100
17950;BME280;9100;48.700;9.316;2023-01-29T03:29:58;98785.2;;;1.19;100
17950;BME280;9100;48.700;9.316;2023-01-29T03:30:35;98795.3;;;1.19;100
17950;BME280;9100;48.700;9.316;2023-01-29T03:31:00;98795.3;;;1.19;100
17950;BME280;9100;48.700;9.316;2023-01-29T03:31:58;98796.1;;;1.19;100
17950;BME280;9100;48.700;9.316;2023-01-29T03:32:59;98796.1;;;1.19;100
17950;BME280;9100;48.700;9.316;2023-01-29T03:33:59;98800.3;;;1.19;100
17950;BME280;9100;48.700;9.316;2023-01-29T03:35:00;98804.6;;;1.17;100
17950;BME280;9100;48.700;9.316;2023-01-29T03:35:35;98793.8;;;1.15;100
17950;BME280;9100;48.700;9.316;2023-01-29T03:36:00;98796.40000000001;;;1.15;100
17950;BME280;9100;48.700;9.316;2023-01-29T03:36:58;98800.59999999999;;;1.14;100
17950;BME280;9100;48.700;9.316;2023-01-29T03:37:58;98798.1;;;1.14;100
17950;BME280;9100;48.700;9.316;2023-01-29T03:38:58;98803.09999999999;;;1.14;100
17950;BME280;9100;48.700;9.316;2023-01-29T03:39:58;98797.29999999999;;;1.12;100
17950;BME280;9100;48.700;9.316;2023-01-29T03:40:36;98795.6;;;1.13;100
17950;BME280;9100;48.700;9.316;2023-01-29T03:41:01;98797.29999999999;;;1.12;100
17950;BME280;9100;48.700;9.316;2023-01-29T03:41:59;98798.90000000001;;;1.15;100
17950;BME280;9100;48.700;9.316;2023-01-29T03:42:59;98798.1;;;1.14;100
17950;BME280;9100;48.700;9.316;2023-01-29T03:44:01;98798;;;1.16;100
17950;BME280;9100;48.700;9.316;2023-01-29T03:44:59;98795.4;;;1.16;100
17950;BME280;9100;48.700;9.316;2023-01-29T03:45:36;98801.3;;;1.16;100
17950;BME280;9100;48.700;9.316;2023-01-29T03:46:00;98793.6;;;1.18;100
17950;BME280;9100;48.700;9.316;2023-01-29T03:47:00;98793.5;;;1.19;100
17950;BME280;9100;48.700;9.316;2023-01-29T03:48:01;98794.3;;;1.2;100
17950;BME280;9100;48.700;9.316;2023-01-29T03:49:00;98796;;;1.21;100
17950;BME280;9100;48.700;9.316;2023-01-29T03:49:58;98795.1;;;1.22;100
17950;BME280;9100;48.700;9.316;2023-01-29T03:50:36;98795.1;;;1.22;100
17950;BME280;9100;48.700;9.316;2023-01-29T03:51:00;98795;;;1.23;100
17950;BME280;9100;48.700;9.316;2023-01-29T03:51:59;98791.6;;;1.24;100
17950;BME280;9100;48.700;9.316;2023-01-29T03:52:59;98789;;;1.26;100
17950;BME280;9100;48.700;9.316;2023-01-29T03:54:02;98793.9;;;1.27;100
17950;BME280;9100;48.700;9.316;2023-01-29T03:54:59;98794.7;;;1.28;100
17950;BME280;9100;48.700;9.316;2023-01-29T03:55:35;98786.3;;;1.27;100
17950;BME280;9100;48.700;9.316;2023-01-29T03:55:59;98794.7;;;1.28;100
17950;BME280;9100;48.700;9.316;2023-01-29T03:56:59;98795.4;;;1.3;100
17950;BME280;9100;48.700;9.316;2023-01-29T03:57:59;98798;;;1.3;100
17950;BME280;9100;48.700;9.316;2023-01-29T03:58:59;98797.79999999999;;;1.31;100
17950;BME280;9100;48.700;9.316;2023-01-29T04:00:00;98802.09999999999;;;1.31;100
17950;BME280;9100;48.700;9.316;2023-01-29T04:00:36;98806.2;;;1.32;100
17950;BME280;9100;48.700;9.316;2023-01-29T04:00:59;98807.8;;;1.33;100
17950;BME280;9100;48.700;9.316;2023-01-29T04:01:59;98804.4;;;1.34;100
17950;BME280;9100;48.700;9.316;2023-01-29T04:03:00;98795.9;;;1.35;100
17950;BME280;9100;48.700;9.316;2023-01-29T04:04:00;98802.59999999999;;;1.36;100
17950;BME280;9100;48.700;9.316;2023-01-29T04:04:58;98803.3;;;1.38;100
17950;BME280;9100;48.700;9.316;2023-01-29T04:05:35;98801.59999999999;;;1.38;100
17950;BME280;9100;48.700;9.316;2023-01-29T04:05:59;98800.7;;;1.39;100
17950;BME280;9100;48.700;9.316;2023-01-29T04:06:59;98803.2;;;1.39;100
17950;BME280;9100;48.700;9.316;2023-01-29T04:07:59;98804;;;1.4;100
17950;BME280;9100;48.700;9.316;2023-01-29T04:08:58;98802.3;;;1.4;100
17950;BME280;9100;48.700;9.316;2023-01-29T04:09:59;98802.3;;;1.4;100
17950;BME280;9100;48.700;9.316;2023-01-29T04:10:34;98794.8;;;1.4;100
17950;BME280;9100;48.700;9.316;2023-01-29T04:10:58;98800.59999999999;;;1.41;100
17950;BME280;9100;48.700;9.316;2023-01-29T04:11:59;98805.7;;;1.41;100
17950;BME280;9100;48.700;9.316;2023-01-29T04:12:59;98809.79999999999;;;1.42;100
17950;BME280;9100;48.700;9.316;2023-01-29T04:13:58;98812.3;;;1.42;100
17950;BME280;9100;48.700;9.316;2023-01-29T04:14:59;98805.7;;;1.41;100
17950;BME280;9100;48.700;9.316;2023-01-29T04:15:35;98813.2;;;1.41;100
17950;BME280;9100;48.700;9.316;2023-01-29T04:15:59;98809.7;;;1.43;100
17950;BME280;9100;48.700;9.316;2023-01-29T04:16:59;98810.5;;;1.44;100
17950;BME280;9100;48.700;9.316;2023-01-29T04:17:58;98806.4;;;1.43;100
17950;BME280;9100;48.700;9.316;2023-01-29T04:18:58;98816.5;;;1.41;100
17950;BME280;9100;48.700;9.316;2023-01-29T04:19:59;98813.2;;;1.41;100
17950;BME280;9100;48.700;9.316;2023-01-29T04:20:34;98805.7;;;1.41;100
17950;BME280;9100;48.700;9.316;2023-01-29T04:20:59;98812.3;;;1.42;100
17950;BME280;9100;48.700;9.316;2023-01-29T04:22:01;98809;;;1.41;100
17950;BME280;9100;48.700;9.316;2023-01-29T04:22:58;98810.6;;;1.42;100
17950;BME280;9100;48.700;9.316;2023-01-29T04:23:59;98801.3;;;1.43;100
17950;BME280;9100;48.700;9.316;2023-01-29T04:24:58;98805.6;;;1.42;100
17950;BME280;9100;48.700;9.316;2023-01-29T04:25:38;98805.7;;;1.41;100
17950;BME280;9100;48.700;9.316;2023-01-29T04:26:02;98807.3;;;1.42;100
17950;BME280;9100;48.700;9.316;2023-01-29T04:27:01;98803.9;;;1.43;100
17950;BME280;9100;48.700;9.316;2023-01-29T04:28:02;98808.1;;;1.42;100
17950;BME280;9100;48.700;9.316;2023-01-29T04:29:04;98801.5;;;1.4;100
17950;BME280;9100;48.700;9.316;2023-01-29T04:30:02;98807.4;;;1.4;100
17950;BME280;9100;48.700;9.316;2023-01-29T04:30:37;98813.2;;;1.41;100
17950;BME280;9100;48.700;9.316;2023-01-29T04:31:01;98804.9;;;1.4;100
17950;BME280;9100;48.700;9.316;2023-01-29T04:32:02;98816.7;;;1.38;100
17950;BME280;9100;48.700;9.316;2023-01-29T04:33:02;98810.79999999999;;;1.39;100
17950;BME280;9100;48.700;9.316;2023-01-29T04:34:00;98814.20000000001;;;1.38;100
17950;BME280;9100;48.700;9.316;2023-01-29T04:34:59;98816.7;;;1.38;100
17950;BME280;9100;48.700;9.316;2023-01-29T04:35:36;98814.3;;;1.37;100
17950;BME280;9100;48.700;9.316;2023-01-29T04:36:02;98813.4;;;1.38;100
17950;BME280;9100;48.700;9.316;2023-01-29T04:37:03;98809.3;;;1.37;100
17950;BME280;9100;48.700;9.316;2023-01-29T04:38:00;98809.3;;;1.37;100